createdAt,value
2023-01-22T00:00:13.808Z,93.24
2023-01-22T00:05:16.371Z,93.53
2023-01-22T00:10:20.522Z,94.26
2023-01-22T00:15:23.082Z,93.88
2023-01-22T00:20:26.585Z,93.55
2023-01-22T00:25:30.509Z,94.01
2023-01-22T00:30:33.101Z,94.16
2023-01-22T00:35:35.946Z,94.09
2023-01-22T00:40:39.773Z,93.80
2023-01-22T00:45:42.237Z,94.73
2023-01-22T00:50:44.698Z,94.28
2023-01-22T00:55:56.553Z,94.95
2023-01-22T01:00:59.170Z,94.27
2023-01-22T01:06:03.364Z,94.65
2023-01-22T01:11:09.427Z,94.44
2023-01-22T01:16:14.842Z,94.72
2023-01-22T01:21:19.113Z,95.08
2023-01-22T01:26:23.112Z,94.85
2023-01-22T01:31:25.965Z,94.90
2023-01-22T01:36:47.148Z,94.74
2023-01-22T01:41:51.919Z,94.05
2023-01-22T01:47:00.270Z,94.60
2023-01-22T01:52:05.807Z,94.82
2023-01-22T01:57:13.529Z,94.68
2023-01-22T02:02:16.646Z,95.05
2023-01-22T02:07:20.116Z,94.22
2023-01-22T02:12:23.918Z,95.06
2023-01-22T02:17:26.398Z,95.25
2023-01-22T02:22:31.962Z,94.98
2023-01-22T02:27:34.666Z,94.38
2023-01-22T02:32:37.299Z,94.79
2023-01-22T02:37:41.100Z,94.23
2023-01-22T02:42:43.609Z,94.50
2023-01-22T02:47:46.089Z,94.19
2023-01-22T02:52:49.995Z,93.93
2023-01-22T02:57:52.471Z,93.24
2023-01-22T03:02:54.959Z,93.07
2023-01-22T03:07:58.765Z,93.00
2023-01-22T03:13:19.147Z,92.53
2023-01-22T03:18:39.662Z,92.62
2023-01-22T03:23:43.664Z,92.22
2023-01-22T03:28:46.810Z,91.79
2023-01-22T03:33:49.276Z,91.43
2023-01-22T03:38:53.155Z,92.00
2023-01-22T03:43:55.652Z,91.06
2023-01-22T03:48:58.468Z,91.08
2023-01-22T03:54:02.278Z,90.92
2023-01-22T03:59:04.825Z,91.17
2023-01-22T04:04:07.276Z,90.88
2023-01-22T04:09:11.148Z,91.46
2023-01-22T04:14:13.650Z,90.88
2023-01-22T04:19:16.105Z,90.97
2023-01-22T04:24:19.900Z,91.55
2023-01-22T04:29:22.439Z,91.32
2023-01-22T04:34:25.024Z,92.12
2023-01-22T04:39:29.119Z,91.33
2023-01-22T04:44:31.603Z,91.89
2023-01-22T04:49:34.076Z,91.88
2023-01-22T04:54:37.903Z,91.54
2023-01-22T04:59:40.387Z,91.85
2023-01-22T05:04:42.875Z,91.64
2023-01-22T05:09:46.662Z,91.59
2023-01-22T05:14:49.127Z,92.26
2023-01-22T05:19:51.682Z,92.57
2023-01-22T05:24:55.879Z,91.79
2023-01-22T05:29:58.395Z,92.77
2023-01-22T05:35:00.857Z,92.03
2023-01-22T05:40:05.338Z,92.52
2023-01-22T05:45:10.094Z,92.31
2023-01-22T05:50:12.557Z,92.19
2023-01-22T05:55:16.507Z,91.84
2023-01-22T06:00:19.785Z,91.37
2023-01-22T06:05:22.453Z,91.76
2023-01-22T06:10:26.288Z,92.07
2023-01-22T06:15:28.857Z,90.98
2023-01-22T06:20:31.327Z,91.17
2023-01-22T06:25:35.745Z,91.16
2023-01-22T06:30:38.458Z,90.96
2023-01-22T06:35:40.947Z,91.65
2023-01-22T06:40:44.760Z,90.74
2023-01-22T06:45:47.239Z,91.29
2023-01-22T06:50:49.867Z,91.13
2023-01-22T06:55:53.840Z,91.16
2023-01-22T07:00:56.316Z,91.25
2023-01-22T07:05:59.771Z,92.10
2023-01-22T07:11:06.349Z,92.06
2023-01-22T07:16:10.267Z,91.64
2023-01-22T07:21:13.439Z,91.99
2023-01-22T07:26:17.724Z,91.49
2023-01-22T07:31:20.207Z,91.66
2023-01-22T07:36:22.862Z,92.39
2023-01-22T07:41:26.952Z,92.13
2023-01-22T07:46:29.602Z,92.10
2023-01-22T07:51:32.859Z,92.81
2023-01-22T07:56:36.718Z,92.95
2023-01-22T08:01:39.241Z,92.57
2023-01-22T08:06:41.743Z,92.54
2023-01-22T08:11:45.573Z,92.61
2023-01-22T08:16:48.253Z,93.05
2023-01-22T08:21:50.762Z,93.33
2023-01-22T08:26:56.128Z,93.07
2023-01-22T08:31:58.728Z,93.52
2023-01-22T08:37:01.270Z,93.65
2023-01-22T08:42:05.077Z,93.03
2023-01-22T08:47:07.557Z,92.81
2023-01-22T08:52:10.027Z,93.53
2023-01-22T08:57:13.823Z,93.12
2023-01-22T09:02:16.313Z,93.39
2023-01-22T09:07:18.824Z,93.16
2023-01-22T09:12:22.614Z,93.84
2023-01-22T09:17:25.142Z,93.27
2023-01-22T09:22:27.610Z,93.97
2023-01-22T09:27:31.473Z,93.49
2023-01-22T09:32:33.963Z,93.98
2023-01-22T09:37:36.436Z,93.45
2023-01-22T09:42:42.693Z,94.15
2023-01-22T09:47:48.302Z,93.96
2023-01-22T09:52:52.617Z,93.71
2023-01-22T09:57:58.837Z,93.49
2023-01-22T10:03:05.930Z,93.80
2023-01-22T10:08:13.472Z,93.60
2023-01-22T10:13:20.130Z,93.43
2023-01-22T10:18:30.642Z,93.33
2023-01-22T10:23:35.157Z,93.42
2023-01-22T10:28:43.603Z,92.46
2023-01-22T10:33:46.103Z,93.17
2023-01-22T10:38:48.630Z,92.09
2023-01-22T10:43:52.444Z,92.77
2023-01-22T10:49:03.271Z,93.08
2023-01-22T10:54:19.605Z,92.84
2023-01-22T10:59:27.306Z,92.62
2023-01-22T11:04:31.620Z,92.83
2023-01-22T11:09:41.363Z,92.89
2023-01-22T11:14:49.778Z,92.92
2023-01-22T11:19:57.800Z,93.02
2023-01-22T11:25:00.695Z,93.25
2023-01-22T11:30:29.635Z,92.62
2023-01-22T11:35:37.941Z,92.83
2023-01-22T11:40:49.664Z,92.85
2023-01-22T11:46:20.501Z,92.79
2023-01-22T11:51:33.177Z,92.95
2023-01-22T11:56:50.300Z,93.24
2023-01-22T12:02:09.745Z,92.58
2023-01-22T12:07:30.217Z,92.92
2023-01-22T12:12:43.134Z,92.95
2023-01-22T12:18:00.167Z,92.59
2023-01-22T12:23:07.253Z,92.54
2023-01-22T12:28:16.592Z,92.96
2023-01-22T12:33:24.566Z,92.84
2023-01-22T12:38:42.384Z,93.42
2023-01-22T12:43:51.533Z,93.34
2023-01-22T12:49:04.588Z,94.03
2023-01-22T12:54:21.950Z,94.47
2023-01-22T12:59:32.639Z,94.75
2023-01-22T13:04:36.487Z,95.12
2023-01-22T13:09:38.973Z,94.50
2023-01-22T13:14:42.818Z,94.83
2023-01-22T13:19:50.169Z,94.90
2023-01-22T13:24:54.710Z,95.07
2023-01-22T13:30:07.910Z,94.94
2023-01-22T13:35:13.496Z,94.70
2023-01-22T13:40:24.077Z,94.91
2023-01-22T13:45:29.289Z,95.48
2023-01-22T13:50:33.837Z,95.02
2023-01-22T13:55:36.376Z,95.40
2023-01-22T14:00:39.410Z,95.78
2023-01-22T14:05:43.267Z,96.07
2023-01-22T14:10:45.748Z,96.07
2023-01-22T14:15:57.022Z,96.75
2023-01-22T14:21:01.167Z,96.79
2023-01-22T14:26:07.434Z,96.65
2023-01-22T14:31:10.236Z,97.30
2023-01-22T14:36:14.400Z,97.12
2023-01-22T14:41:16.947Z,97.29
2023-01-22T14:46:19.441Z,97.38
2023-01-22T14:51:23.277Z,97.52
2023-01-22T14:56:25.919Z,97.13
2023-01-22T15:01:28.703Z,97.82
2023-01-22T15:06:32.656Z,97.65
2023-01-22T15:11:35.135Z,97.46
2023-01-22T15:16:38.865Z,98.98
2023-01-22T15:21:42.862Z,98.97
2023-01-22T15:26:45.621Z,99.69
2023-01-22T15:31:48.264Z,100.00
2023-01-22T15:36:52.172Z,99.65
2023-01-22T15:41:54.681Z,100.00
2023-01-22T15:46:58.750Z,100.00
2023-01-22T15:52:02.674Z,100.00
2023-01-22T15:57:05.212Z,100.00
2023-01-22T16:02:07.894Z,100.00
2023-01-22T16:07:11.731Z,100.00
2023-01-22T16:12:14.266Z,100.00
2023-01-22T16:17:16.889Z,100.00
2023-01-22T16:22:24.806Z,100.00
2023-01-22T16:27:27.321Z,100.00
2023-01-22T16:32:29.871Z,100.00
2023-01-22T16:37:33.731Z,100.00
2023-01-22T16:42:36.426Z,100.00
2023-01-22T16:47:38.998Z,100.00
2023-01-22T16:52:43.172Z,100.00
2023-01-22T16:57:45.660Z,100.00
2023-01-22T17:02:48.169Z,100.00
2023-01-22T17:07:51.991Z,100.00
2023-01-22T17:12:54.539Z,100.00
2023-01-22T17:17:57.083Z,100.00
2023-01-22T17:23:01.098Z,100.00
2023-01-22T17:28:03.636Z,100.00
2023-01-22T17:33:06.156Z,100.00
2023-01-22T17:38:10.473Z,100.00
2023-01-22T17:43:12.960Z,100.00
2023-01-22T17:48:15.558Z,100.00
2023-01-22T17:53:19.374Z,100.00
2023-01-22T17:58:21.835Z,100.00
2023-01-22T18:03:24.305Z,100.00
2023-01-22T18:08:28.930Z,100.00
2023-01-22T18:13:31.457Z,100.00
2023-01-22T18:18:33.961Z,100.00
2023-01-22T18:23:37.764Z,100.00
2023-01-22T18:28:40.321Z,100.00
2023-01-22T18:33:44.997Z,100.00
2023-01-22T18:38:49.309Z,100.00
2023-01-22T18:43:55.245Z,100.00
2023-01-22T18:49:00.118Z,100.00
2023-01-22T18:54:05.791Z,100.00
2023-01-22T18:59:08.945Z,100.00
2023-01-22T19:04:17.788Z,99.83
2023-01-22T19:09:22.115Z,100.00
2023-01-22T19:14:24.707Z,100.00
2023-01-22T19:19:27.260Z,99.99
2023-01-22T19:24:32.535Z,100.00
2023-01-22T19:29:35.089Z,100.00
2023-01-22T19:34:39.181Z,100.00
2023-01-22T19:39:43.105Z,100.00
2023-01-22T19:44:45.976Z,99.81
2023-01-22T19:49:48.556Z,100.00
2023-01-22T19:54:52.553Z,100.00
2023-01-22T19:59:58.174Z,100.00
2023-01-22T20:05:00.709Z,100.00
2023-01-22T20:10:05.134Z,100.00
2023-01-22T20:15:08.825Z,100.00
2023-01-22T20:20:12.631Z,100.00
2023-01-22T20:25:18.090Z,100.00
2023-01-22T20:30:21.863Z,100.00
2023-01-22T20:35:24.412Z,100.00
2023-01-22T20:40:28.245Z,100.00
2023-01-22T20:45:30.845Z,100.00
2023-01-22T20:50:33.354Z,100.00
2023-01-22T20:55:37.264Z,100.00
2023-01-22T21:00:40.248Z,100.00
2023-01-22T21:05:42.832Z,100.00
2023-01-22T21:10:56.515Z,100.00
2023-01-22T21:16:06.825Z,100.00
2023-01-22T21:21:09.836Z,100.00
2023-01-22T21:26:15.469Z,100.00
2023-01-22T21:31:20.516Z,100.00
2023-01-22T21:36:23.016Z,100.00
2023-01-22T21:41:27.680Z,100.00
2023-01-22T21:46:33.292Z,100.00
2023-01-22T21:51:35.823Z,100.00
2023-01-22T21:56:39.630Z,100.00
2023-01-22T22:01:42.366Z,100.00
2023-01-22T22:06:44.912Z,100.00
2023-01-22T22:11:48.891Z,100.00
2023-01-22T22:16:51.691Z,100.00
2023-01-22T22:21:54.239Z,100.00
2023-01-22T22:26:58.049Z,100.00
2023-01-22T22:32:00.616Z,100.00
2023-01-22T22:37:03.177Z,100.00
2023-01-22T22:42:07.053Z,100.00
2023-01-22T22:47:09.533Z,100.00
2023-01-22T22:52:13.175Z,100.00
2023-01-22T22:57:16.978Z,100.00
2023-01-22T23:02:21.543Z,100.00
2023-01-22T23:07:24.024Z,100.00
2023-01-22T23:12:28.045Z,100.00
2023-01-22T23:17:30.537Z,100.00
2023-01-22T23:22:33.072Z,100.00
2023-01-22T23:27:36.910Z,100.00
2023-01-22T23:32:39.856Z,100.00
2023-01-22T23:37:42.324Z,100.00
2023-01-22T23:42:49.730Z,100.00
2023-01-22T23:47:52.723Z,100.00
2023-01-22T23:52:55.249Z,100.00
2023-01-22T23:57:59.046Z,100.00
